KRWF/RWF METAR and TAF weather

Enter ICAO airport designator
Station Type Date Time Source
KRWF METAR 2024/04/23 04:53 UTC NOAA

KRWF 230453Z AUTO 24010KT 10SM CLR 12/M05 A2967 RMK AO2 SLP046 T01221050


Station Type Date Time Source
KRWF Decoded METAR 2024/04/23 04:53 UTC NOAA

REDWOOD FALLS MUNICIPAL, MN, United States (KRWF) 44-33N 95-05W 311M
Apr 23, 2024 - 12:53 AM EDT / 2024.04.23 0453 UTC
Wind: from the WSW (240 degrees) at 12 MPH (10 KT):0
Visibility: 10 mile(s):0
Sky conditions: clear
Temperature: 54.0 F (12.2 C)
Dew Point: 23.0 F (-5.0 C)
Relative Humidity: 29%
Pressure (altimeter): 29.67 in. Hg (1004 hPa)
ob: KRWF 230453Z AUTO 24010KT 10SM CLR 12/M05 A2967 RMK AO2 SLP046 T01221050
cycle: 5

Station Type Date Time Source
KRWF TAF 2024/04/23 06:22 UTC NOAA